Time,TemperatureF,DewpointF,PressureIn,WindDirection,WindDirectionDegrees,WindSpeedMPH,WindSpeedGustMPH,Humidity,HourlyPrecipIn,Conditions,Clouds,dailyrainin,SoftwareType,DateUTC
2013-04-05 00:00:00,37.8,-99.9,29.88,SSW,198,0.0,0.0,-999,0.00,,,-99.99,perl,2013-04-05 04:00:00,
2013-04-05 00:02:00,37.8,-99.9,29.88,SSW,199,0.0,0.0,-999,0.00,,,-99.99,perl,2013-04-05 04:02:00,
2013-04-05 00:03:00,37.9,-99.9,29.88,SSW,203,0.0,0.0,-999,0.00,,,-99.99,perl,2013-04-05 04:03:00,
2013-04-05 00:08:00,37.9,-99.9,29.88,SSW,203,0.0,0.0,-999,0.00,,,-99.99,perl,2013-04-05 04:08:00,
2013-04-05 00:13:00,37.9,-99.9,29.88,SSW,202,0.0,0.0,-999,0.00,,,-99.99,perl,2013-04-05 04:13:00,
2013-04-05 00:18:00,38.1,-99.9,29.88,SSW,203,0.0,0.0,-999,0.00,,,-99.99,perl,2013-04-05 04:18:00,
2013-04-05 00:24:00,38.3,-99.9,29.88,SSW,203,0.0,0.0,-999,0.00,,,-99.99,perl,2013-04-05 04:24:00,
2013-04-05 00:30:00,38.3,-99.9,29.88,SSW,203,0.0,0.0,-999,0.00,,,-99.99,perl,2013-04-05 04:30:00,
2013-04-05 00:35:00,38.1,-99.9,29.88,SSW,203,0.0,0.0,-999,0.00,,,-99.99,perl,2013-04-05 04:35:00,
2013-04-05 00:40:00,37.9,-99.9,29.88,SSW,204,0.0,0.0,-999,0.00,,,-99.99,perl,2013-04-05 04:40:00,
2013-04-05 00:45:00,37.6,-99.9,29.88,SSW,203,0.0,0.0,-999,0.00,,,-99.99,perl,2013-04-05 04:45:00,
2013-04-05 00:51:00,37.4,-99.9,29.88,SSW,204,0.0,0.0,-999,0.00,,,-99.99,perl,2013-04-05 04:51:00,
2013-04-05 00:57:00,37.4,-99.9,29.88,SSW,203,0.0,0.0,-999,0.00,,,-99.99,perl,2013-04-05 04:57:00,
2013-04-05 01:02:00,37.6,-99.9,29.88,SSW,203,0.0,0.0,-999,0.00,,,-99.99,perl,2013-04-05 05:02:00,
2013-04-05 01:07:00,37.8,-99.9,29.88,SSW,203,0.0,0.0,-999,0.00,,,-99.99,perl,2013-04-05 05:07:00,
2013-04-05 01:12:00,37.8,-99.9,29.88,SSW,203,0.0,0.0,-999,0.00,,,-99.99,perl,2013-04-05 05:12:00,
2013-04-05 01:17:00,37.8,-99.9,29.88,SSW,203,0.0,0.0,-999,0.00,,,-99.99,perl,2013-04-05 05:17:00,
2013-04-05 01:22:00,37.6,-99.9,29.88,SSW,203,0.0,0.0,-999,0.00,,,-99.99,perl,2013-04-05 05:22:00,
2013-04-05 01:28:00,37.4,-99.9,29.88,SSW,203,0.0,0.0,-999,0.00,,,-99.99,perl,2013-04-05 05:28:00,
2013-04-05 01:33:00,37.0,-99.9,29.85,SSW,194,0.0,0.0,-999,0.00,,,-99.99,perl,2013-04-05 05:33:00,
2013-04-05 01:38:00,36.9,-99.9,29.85,SSW,192,0.0,0.0,-999,0.00,,,-99.99,perl,2013-04-05 05:38:00,
2013-04-05 01:43:00,36.7,-99.9,29.85,South,189,0.0,0.0,-999,0.00,,,-99.99,perl,2013-04-05 05:43:00,
2013-04-05 01:48:00,36.3,-99.9,29.85,South,184,0.0,0.0,-999,0.00,,,-99.99,perl,2013-04-05 05:48:00,
2013-04-05 01:53:00,36.1,-99.9,29.85,South,183,0.0,0.0,-999,0.00,,,-99.99,perl,2013-04-05 05:53:00,
2013-04-05 01:58:00,36.0,-99.9,29.85,South,184,0.0,0.0,-999,0.00,,,-99.99,perl,2013-04-05 05:58:00,
2013-04-05 02:05:00,35.6,-99.9,29.85,South,183,0.0,0.0,-999,0.00,,,-99.99,perl,2013-04-05 06:05:00,
2013-04-05 02:11:00,35.6,-99.9,29.85,South,179,0.0,0.0,-999,0.00,,,-99.99,perl,2013-04-05 06:11:00,
2013-04-05 02:17:00,35.4,-99.9,29.85,South,180,0.0,0.0,-999,0.00,,,-99.99,perl,2013-04-05 06:17:00,
2013-04-05 02:22:00,35.4,-99.9,29.85,South,187,0.0,0.0,-999,0.00,,,-99.99,perl,2013-04-05 06:22:00,
2013-04-05 02:27:00,35.4,-99.9,29.85,SSW,195,0.0,0.0,-999,0.00,,,-99.99,perl,2013-04-05 06:27:00,
2013-04-05 02:32:00,35.4,-99.9,29.85,SSW,192,0.0,0.0,-999,0.00,,,-99.99,perl,2013-04-05 06:32:00,
2013-04-05 02:38:00,35.6,-99.9,29.85,WNW,293,0.0,0.0,-999,0.00,,,-99.99,perl,2013-04-05 06:38:00,
2013-04-05 02:43:00,35.6,-99.9,29.85,North,351,0.0,0.0,-999,0.00,,,-99.99,perl,2013-04-05 06:43:00,
2013-04-05 02:48:00,35.1,-99.9,29.88,North,353,0.0,0.0,-999,0.00,,,-99.99,perl,2013-04-05 06:48:00,
2013-04-05 02:53:00,35.1,-99.9,29.88,North,353,0.0,0.0,-999,0.00,,,-99.99,perl,2013-04-05 06:53:00,
2013-04-05 02:58:00,35.1,-99.9,29.88,North,353,0.0,0.0,-999,0.00,,,-99.99,perl,2013-04-05 06:58:00,
2013-04-05 03:03:00,35.2,-99.9,29.85,North,353,0.0,0.0,-999,0.00,,,-99.99,perl,2013-04-05 07:03:00,
2013-04-05 03:08:00,35.4,-99.9,29.85,West,267,0.0,0.0,-999,0.00,,,-99.99,perl,2013-04-05 07:08:00,
2013-04-05 03:13:00,36.0,-99.9,29.85,West,268,0.0,0.0,-999,0.00,,,-99.99,perl,2013-04-05 07:13:00,
2013-04-05 03:18:00,36.7,-99.9,29.85,West,267,0.0,0.0,-999,0.00,,,-99.99,perl,2013-04-05 07:18:00,
2013-04-05 03:24:00,37.4,-99.9,29.85,WNW,282,0.0,0.0,-999,0.00,,,-99.99,perl,2013-04-05 07:24:00,
2013-04-05 03:29:00,37.8,-99.9,29.88,West,278,2.7,3.1,-999,0.00,,,-99.99,perl,2013-04-05 07:29:00,
2013-04-05 03:37:00,38.1,-99.9,29.88,West,276,3.1,3.1,-999,0.00,,,-99.99,perl,2013-04-05 07:37:00,
2013-04-05 03:43:00,38.3,-99.9,29.88,WNW,284,3.4,3.6,-999,0.00,,,-99.99,perl,2013-04-05 07:43:00,
2013-04-05 03:49:00,38.5,-99.9,29.85,West,275,3.8,5.4,-999,0.00,,,-99.99,perl,2013-04-05 07:49:00,
2013-04-05 03:55:00,38.7,-99.9,29.85,WSW,256,3.5,3.5,-999,0.00,,,-99.99,perl,2013-04-05 07:55:00,
2013-04-05 04:01:00,38.7,-99.9,29.85,West,279,3.1,4.0,-999,0.00,,,-99.99,perl,2013-04-05 08:01:00,
2013-04-05 04:06:00,38.5,-99.9,29.85,West,274,3.9,5.4,-999,0.00,,,-99.99,perl,2013-04-05 08:06:00,
2013-04-05 04:11:00,38.5,-99.9,29.85,WNW,283,2.3,4.0,-999,0.00,,,-99.99,perl,2013-04-05 08:11:00,
2013-04-05 04:16:00,38.3,-99.9,29.85,West,274,0.6,4.9,-999,0.00,,,-99.99,perl,2013-04-05 08:16:00,
2013-04-05 04:22:00,38.1,-99.9,29.85,West,262,3.1,4.0,-999,0.00,,,-99.99,perl,2013-04-05 08:22:00,
2013-04-05 04:27:00,38.1,-99.9,29.85,West,277,2.3,4.0,-999,0.00,,,-99.99,perl,2013-04-05 08:27:00,
2013-04-05 04:33:00,37.9,-99.9,29.85,West,278,2.2,2.7,-999,0.00,,,-99.99,perl,2013-04-05 08:33:00,
2013-04-05 04:38:00,37.9,-99.9,29.85,West,275,2.0,2.7,-999,0.00,,,-99.99,perl,2013-04-05 08:38:00,
2013-04-05 04:43:00,37.9,-99.9,29.85,WNW,282,3.1,3.1,-999,0.00,,,-99.99,perl,2013-04-05 08:43:00,
2013-04-05 04:49:00,37.9,-99.9,29.85,WSW,243,0.0,0.0,-999,0.00,,,-99.99,perl,2013-04-05 08:49:00,
2013-04-05 04:56:00,37.9,-99.9,29.85,West,278,0.0,0.0,-999,0.00,,,-99.99,perl,2013-04-05 08:56:00,
2013-04-05 05:01:00,37.9,-99.9,29.88,West,278,0.0,0.0,-999,0.00,,,-99.99,perl,2013-04-05 09:01:00,
2013-04-05 05:06:00,37.9,-99.9,29.88,West,278,0.0,0.0,-999,0.00,,,-99.99,perl,2013-04-05 09:06:00,
2013-04-05 05:11:00,37.8,-99.9,29.88,West,278,0.0,0.0,-999,0.00,,,-99.99,perl,2013-04-05 09:11:00,
2013-04-05 05:16:00,37.8,-99.9,29.88,West,277,0.0,0.0,-999,0.00,,,-99.99,perl,2013-04-05 09:16:00,
2013-04-05 05:21:00,37.8,-99.9,29.88,West,277,0.0,0.0,-999,0.00,,,-99.99,perl,2013-04-05 09:21:00,
2013-04-05 05:26:00,37.6,-99.9,29.88,WNW,282,0.0,0.0,-999,0.00,,,-99.99,perl,2013-04-05 09:26:00,
2013-04-05 05:31:00,37.8,-99.9,29.88,WNW,298,0.0,0.0,-999,0.00,,,-99.99,perl,2013-04-05 09:31:00,
2013-04-05 05:36:00,37.6,-99.9,29.88,WNW,289,0.0,0.0,-999,0.00,,,-99.99,perl,2013-04-05 09:36:00,
2013-04-05 05:41:00,37.6,-99.9,29.88,West,270,0.6,3.1,-999,0.00,,,-99.99,perl,2013-04-05 09:41:00,
2013-04-05 05:46:00,37.6,-99.9,29.88,West,269,2.7,4.0,-999,0.00,,,-99.99,perl,2013-04-05 09:46:00,
2013-04-05 05:51:00,37.6,-99.9,29.88,WSW,257,0.0,0.0,-999,0.00,,,-99.99,perl,2013-04-05 09:51:00,
2013-04-05 05:56:00,37.6,-99.9,29.88,West,272,0.6,5.4,-999,0.00,,,-99.99,perl,2013-04-05 09:56:00,
2013-04-05 06:01:00,37.6,-99.9,29.88,West,270,0.5,3.6,-999,0.00,,,-99.99,perl,2013-04-05 10:01:00,
2013-04-05 06:06:00,37.6,-99.9,29.88,West,273,0.0,0.0,-999,0.00,,,-99.99,perl,2013-04-05 10:06:00,
2013-04-05 06:11:00,37.4,-99.9,29.88,West,271,2.2,4.9,-999,0.00,,,-99.99,perl,2013-04-05 10:11:00,
2013-04-05 06:16:00,37.4,-99.9,29.88,West,265,0.0,0.0,-999,0.00,,,-99.99,perl,2013-04-05 10:16:00,
2013-04-05 06:21:00,37.0,-99.9,29.88,West,260,3.1,3.6,-999,0.00,,,-99.99,perl,2013-04-05 10:21:00,
2013-04-05 06:26:00,36.9,-99.9,29.88,West,269,1.8,3.1,-999,0.00,,,-99.99,perl,2013-04-05 10:26:00,
2013-04-05 06:32:00,36.7,-99.9,29.88,WSW,251,2.2,3.6,-999,0.00,,,-99.99,perl,2013-04-05 10:32:00,
2013-04-05 06:38:00,36.7,-99.9,29.88,WSW,256,2.7,3.6,-999,0.00,,,-99.99,perl,2013-04-05 10:38:00,
2013-04-05 06:45:00,36.7,-99.9,29.88,WSW,256,0.0,0.0,-999,0.00,,,-99.99,perl,2013-04-05 10:45:00,
2013-04-05 06:50:00,36.7,-99.9,29.88,WNW,282,0.0,0.0,-999,0.00,,,-99.99,perl,2013-04-05 10:50:00,
2013-04-05 06:58:00,36.7,-99.9,29.88,WSW,249,3.5,3.6,-999,0.00,,,-99.99,perl,2013-04-05 10:58:00,
2013-04-05 07:04:00,36.5,-99.9,29.91,WSW,251,3.0,3.0,-999,0.00,,,-99.99,perl,2013-04-05 11:04:00,
2013-04-05 07:10:00,36.3,-99.9,29.91,West,273,3.1,3.6,-999,0.00,,,-99.99,perl,2013-04-05 11:10:00,
2013-04-05 07:16:00,36.3,-99.9,29.91,West,281,2.5,3.1,-999,0.00,,,-99.99,perl,2013-04-05 11:16:00,
2013-04-05 07:21:00,36.3,-99.9,29.91,WSW,251,2.2,2.7,-999,0.00,,,-99.99,perl,2013-04-05 11:21:00,
2013-04-05 07:26:00,36.1,-99.9,29.91,West,269,0.6,4.0,-999,0.00,,,-99.99,perl,2013-04-05 11:26:00,
2013-04-05 07:31:00,36.3,-99.9,29.91,WNW,284,3.6,4.9,-999,0.00,,,-99.99,perl,2013-04-05 11:31:00,
2013-04-05 07:36:00,36.5,-99.9,29.91,West,272,4.3,4.3,-999,0.00,,,-99.99,perl,2013-04-05 11:36:00,
2013-04-05 07:42:00,36.9,-99.9,29.91,WNW,296,3.1,3.1,-999,0.00,,,-99.99,perl,2013-04-05 11:42:00,
2013-04-05 07:47:00,37.2,-99.9,29.91,West,266,2.8,5.8,-999,0.00,,,-99.99,perl,2013-04-05 11:47:00,
2013-04-05 07:52:00,37.4,-99.9,29.91,NW,311,0.0,0.0,-999,0.00,,,-99.99,perl,2013-04-05 11:52:00,
2013-04-05 07:57:00,37.6,-99.9,29.91,WNW,289,3.2,4.0,-999,0.00,,,-99.99,perl,2013-04-05 11:57:00,
2013-04-05 08:02:00,37.6,-99.9,29.91,WSW,258,0.0,0.0,-999,0.00,,,-99.99,perl,2013-04-05 12:02:00,
2013-04-05 08:08:00,37.6,-99.9,29.91,West,281,3.0,3.6,-999,0.00,,,-99.99,perl,2013-04-05 12:08:00,
2013-04-05 08:14:00,37.6,-99.9,29.91,West,277,4.5,5.4,-999,0.00,,,-99.99,perl,2013-04-05 12:14:00,
2013-04-05 08:20:00,37.9,-99.9,29.91,West,259,4.5,4.9,-999,0.00,,,-99.99,perl,2013-04-05 12:20:00,
2013-04-05 08:25:00,38.1,-99.9,29.91,WSW,254,3.8,5.8,-999,0.00,,,-99.99,perl,2013-04-05 12:25:00,
2013-04-05 08:30:00,38.3,-99.9,29.91,WNW,290,6.4,6.4,-999,0.00,,,-99.99,perl,2013-04-05 12:30:00,
2013-04-05 08:35:00,38.5,-99.9,29.91,NW,304,4.0,6.3,-999,0.00,,,-99.99,perl,2013-04-05 12:35:00,
2013-04-05 08:40:00,38.8,-99.9,29.91,NW,326,4.9,6.3,-999,0.00,,,-99.99,perl,2013-04-05 12:40:00,
2013-04-05 08:45:00,38.8,-99.9,29.91,NW,324,3.6,3.6,-999,0.00,,,-99.99,perl,2013-04-05 12:45:00,
2013-04-05 08:51:00,39.2,-99.9,29.91,NW,304,4.5,6.3,-999,0.00,,,-99.99,perl,2013-04-05 12:51:00,
2013-04-05 08:56:00,39.2,-99.9,29.91,NW,306,4.5,5.8,-999,0.00,,,-99.99,perl,2013-04-05 12:56:00,
2013-04-05 09:01:00,39.4,-99.9,29.94,NW,307,4.1,5.4,-999,0.00,,,-99.99,perl,2013-04-05 13:01:00,
2013-04-05 09:07:00,39.4,-99.9,29.94,NW,312,3.0,4.0,-999,0.00,,,-99.99,perl,2013-04-05 13:07:00,
2013-04-05 09:12:00,39.6,-99.9,29.94,WNW,302,3.7,6.3,-999,0.00,,,-99.99,perl,2013-04-05 13:12:00,
2013-04-05 09:17:00,39.7,-99.9,29.91,WSW,242,4.0,5.4,-999,0.00,,,-99.99,perl,2013-04-05 13:17:00,
2013-04-05 09:22:00,39.7,-99.9,29.91,WNW,289,5.0,8.1,-999,0.00,,,-99.99,perl,2013-04-05 13:22:00,
2013-04-05 09:28:00,39.9,-99.9,29.91,WSW,243,4.5,5.8,-999,0.00,,,-99.99,perl,2013-04-05 13:28:00,
2013-04-05 09:33:00,40.1,-99.9,29.94,SSE,147,3.1,3.6,-999,0.00,,,-99.99,perl,2013-04-05 13:33:00,
2013-04-05 09:38:00,40.5,-99.9,29.94,NNW,332,4.0,5.4,-999,0.00,,,-99.99,perl,2013-04-05 13:38:00,
2013-04-05 09:43:00,40.5,-99.9,29.94,NW,321,5.5,5.8,-999,0.00,,,-99.99,perl,2013-04-05 13:43:00,
2013-04-05 09:48:00,40.3,-99.9,29.94,West,280,6.3,8.3,-999,0.00,,,-99.99,perl,2013-04-05 13:48:00,
2013-04-05 09:53:00,40.6,-99.9,29.94,NW,305,4.7,4.9,-999,0.00,,,-99.99,perl,2013-04-05 13:53:00,
2013-04-05 09:58:00,41.2,-99.9,29.94,WNW,299,0.0,6.3,-999,0.00,,,-99.99,perl,2013-04-05 13:58:00,
2013-04-05 10:03:00,40.8,-99.9,29.94,West,278,6.0,13.2,-999,0.00,,,-99.99,perl,2013-04-05 14:03:00,
2013-04-05 10:08:00,41.2,-99.9,29.94,NNW,337,5.2,5.4,-999,0.00,,,-99.99,perl,2013-04-05 14:08:00,
2013-04-05 10:14:00,41.2,-99.9,29.94,WNW,297,6.6,6.6,-999,0.00,,,-99.99,perl,2013-04-05 14:14:00,
2013-04-05 10:19:00,41.5,-99.9,29.94,WNW,292,4.9,6.3,-999,0.00,,,-99.99,perl,2013-04-05 14:19:00,
2013-04-05 10:25:00,41.5,-99.9,29.94,WNW,292,4.6,8.1,-999,0.00,,,-99.99,perl,2013-04-05 14:25:00,
2013-04-05 10:30:00,41.7,-99.9,29.94,NNW,328,4.9,5.8,-999,0.00,,,-99.99,perl,2013-04-05 14:30:00,
2013-04-05 10:35:00,42.1,-99.9,29.94,SW,231,5.8,6.3,-999,0.00,,,-99.99,perl,2013-04-05 14:35:00,
2013-04-05 10:41:00,41.7,-99.9,29.94,WNW,303,4.9,5.8,-999,0.00,,,-99.99,perl,2013-04-05 14:41:00,
2013-04-05 10:47:00,41.2,-99.9,29.94,WNW,299,8.1,8.3,-999,0.00,,,-99.99,perl,2013-04-05 14:47:00,
2013-04-05 10:52:00,41.5,-99.9,29.94,NW,311,5.0,10.1,-999,0.00,,,-99.99,perl,2013-04-05 14:52:00,
2013-04-05 10:57:00,41.7,-99.9,29.94,WSW,251,4.5,7.6,-999,0.00,,,-99.99,perl,2013-04-05 14:57:00,
2013-04-05 11:03:00,42.1,-99.9,29.94,NW,307,4.7,5.4,-999,0.00,,,-99.99,perl,2013-04-05 15:03:00,
2013-04-05 11:08:00,42.1,-99.9,29.94,SW,230,6.3,6.3,-999,0.00,,,-99.99,perl,2013-04-05 15:08:00,
2013-04-05 11:13:00,42.3,-99.9,29.94,WNW,300,5.7,10.5,-999,0.00,,,-99.99,perl,2013-04-05 15:13:00,
2013-04-05 11:20:00,42.3,-99.9,29.94,WNW,287,6.0,8.7,-999,0.00,,,-99.99,perl,2013-04-05 15:20:00,
2013-04-05 11:25:00,42.3,-99.9,29.94,NNW,340,4.5,8.1,-999,0.00,,,-99.99,perl,2013-04-05 15:25:00,
2013-04-05 11:30:00,42.4,-99.9,29.94,NW,304,5.4,6.7,-999,0.00,,,-99.99,perl,2013-04-05 15:30:00,
2013-04-05 11:35:00,42.3,-99.9,29.94,WNW,287,4.8,5.4,-999,0.00,,,-99.99,perl,2013-04-05 15:35:00,
2013-04-05 11:40:00,43.0,-99.9,29.94,NW,308,2.7,6.3,-999,0.00,,,-99.99,perl,2013-04-05 15:40:00,
2013-04-05 11:46:00,42.3,-99.9,29.94,WNW,299,4.9,5.4,-999,0.00,,,-99.99,perl,2013-04-05 15:46:00,
2013-04-05 11:53:00,42.8,-99.9,29.94,NW,323,6.5,10.1,-999,0.00,,,-99.99,perl,2013-04-05 15:53:00,
2013-04-05 11:58:00,42.8,-99.9,29.94,NW,319,4.9,5.8,-999,0.00,,,-99.99,perl,2013-04-05 15:58:00,
2013-04-05 12:03:00,42.6,-99.9,29.94,West,261,4.9,7.2,-999,0.00,,,-99.99,perl,2013-04-05 16:03:00,
2013-04-05 12:08:00,42.1,-99.9,29.94,NW,305,3.1,5.4,-999,0.00,,,-99.99,perl,2013-04-05 16:08:00,
2013-04-05 12:13:00,42.3,-99.9,29.94,NW,321,4.6,5.4,-999,0.00,,,-99.99,perl,2013-04-05 16:13:00,
2013-04-05 12:18:00,42.1,-99.9,29.94,NNW,331,4.0,6.3,-999,0.00,,,-99.99,perl,2013-04-05 16:18:00,
2013-04-05 12:23:00,42.1,-99.9,29.94,NW,309,5.2,12.8,-999,0.00,,,-99.99,perl,2013-04-05 16:23:00,
2013-04-05 12:28:00,42.3,-99.9,29.94,NNW,336,6.3,6.3,-999,0.00,,,-99.99,perl,2013-04-05 16:28:00,
2013-04-05 12:33:00,42.4,-99.9,29.94,SSE,162,4.5,4.5,-999,0.00,,,-99.99,perl,2013-04-05 16:33:00,
2013-04-05 12:38:00,42.6,-99.9,29.94,WSW,258,4.6,5.8,-999,0.00,,,-99.99,perl,2013-04-05 16:38:00,
2013-04-05 12:43:00,42.1,-99.9,29.94,West,260,4.5,10.1,-999,0.00,,,-99.99,perl,2013-04-05 16:43:00,
2013-04-05 12:48:00,41.5,-99.9,29.94,NW,325,5.4,5.4,-999,0.00,,,-99.99,perl,2013-04-05 16:48:00,
2013-04-05 12:53:00,41.7,-99.9,29.94,NNW,342,4.9,5.8,-999,0.00,,,-99.99,perl,2013-04-05 16:53:00,
2013-04-05 12:58:00,41.9,-99.9,29.94,WNW,286,4.8,5.8,-999,0.00,,,-99.99,perl,2013-04-05 16:58:00,
2013-04-05 13:04:00,41.0,-99.9,29.94,NW,306,5.4,5.8,-999,0.00,,,-99.99,perl,2013-04-05 17:04:00,
2013-04-05 13:09:00,40.8,-99.9,29.94,ENE,78,4.4,4.9,-999,0.00,,,-99.99,perl,2013-04-05 17:09:00,
2013-04-05 13:14:00,41.2,-99.9,29.94,NW,323,5.8,5.8,-999,0.00,,,-99.99,perl,2013-04-05 17:14:00,
2013-04-05 13:20:00,41.2,-99.9,29.94,SSW,208,0.0,2.7,-999,0.00,,,-99.99,perl,2013-04-05 17:20:00,
2013-04-05 13:25:00,41.2,-99.9,29.94,NW,322,4.9,5.4,-999,0.00,,,-99.99,perl,2013-04-05 17:25:00,
2013-04-05 13:31:00,41.0,-99.9,29.97,SW,224,4.9,8.1,-999,0.00,,,-99.99,perl,2013-04-05 17:31:00,
2013-04-05 13:36:00,41.2,-99.9,29.97,South,169,7.2,7.2,-999,0.00,,,-99.99,perl,2013-04-05 17:36:00,
2013-04-05 13:41:00,40.8,-99.9,29.97,NW,311,5.9,6.3,-999,0.00,,,-99.99,perl,2013-04-05 17:41:00,
2013-04-05 13:46:00,40.5,-99.9,29.94,NNW,333,5.4,5.4,-999,0.00,,,-99.99,perl,2013-04-05 17:46:00,
2013-04-05 13:52:00,41.0,-99.9,29.94,WNW,302,5.7,6.3,-999,0.00,,,-99.99,perl,2013-04-05 17:52:00,
2013-04-05 13:57:00,41.0,-99.9,29.94,NW,311,2.7,4.9,-999,0.00,,,-99.99,perl,2013-04-05 17:57:00,
2013-04-05 14:02:00,41.0,-99.9,29.94,NW,311,5.4,5.4,-999,0.00,,,-99.99,perl,2013-04-05 18:02:00,
2013-04-05 14:08:00,41.2,-99.9,29.94,NNW,328,5.0,6.3,-999,0.00,,,-99.99,perl,2013-04-05 18:08:00,
2013-04-05 14:15:00,41.5,-99.9,29.94,West,274,3.9,5.8,-999,0.00,,,-99.99,perl,2013-04-05 18:15:00,
2013-04-05 14:21:00,42.1,-99.9,29.94,WNW,293,7.2,7.2,-999,0.00,,,-99.99,perl,2013-04-05 18:21:00,
2013-04-05 14:26:00,42.6,-99.9,29.94,WSW,245,5.1,5.4,-999,0.00,,,-99.99,perl,2013-04-05 18:26:00,
2013-04-05 14:32:00,42.3,-99.9,29.94,South,175,4.9,6.3,-999,0.00,,,-99.99,perl,2013-04-05 18:32:00,
2013-04-05 14:37:00,41.9,-99.9,29.94,NW,310,5.7,6.3,-999,0.00,,,-99.99,perl,2013-04-05 18:37:00,
2013-04-05 14:42:00,41.9,-99.9,29.94,NW,322,5.4,5.8,-999,0.00,,,-99.99,perl,2013-04-05 18:42:00,
2013-04-05 14:48:00,41.7,-99.9,29.97,NW,317,3.9,5.4,-999,0.00,,,-99.99,perl,2013-04-05 18:48:00,
2013-04-05 14:53:00,42.3,-99.9,29.97,NNW,331,4.0,5.8,-999,0.00,,,-99.99,perl,2013-04-05 18:53:00,
2013-04-05 14:58:00,42.3,-99.9,29.97,NNW,343,5.4,6.3,-999,0.00,,,-99.99,perl,2013-04-05 18:58:00,
2013-04-05 15:03:00,41.7,-99.9,29.97,NNW,329,4.9,7.6,-999,0.00,,,-99.99,perl,2013-04-05 19:03:00,
2013-04-05 15:08:00,41.4,-99.9,29.97,WSW,255,5.6,6.3,-999,0.00,,,-99.99,perl,2013-04-05 19:08:00,
2013-04-05 15:13:00,41.2,-99.9,29.97,South,177,4.5,5.8,-999,0.00,,,-99.99,perl,2013-04-05 19:13:00,
2013-04-05 15:18:00,41.4,-99.9,29.94,NW,320,5.3,6.3,-999,0.00,,,-99.99,perl,2013-04-05 19:18:00,
2013-04-05 15:23:00,42.1,-99.9,29.94,NNW,337,5.1,6.7,-999,0.00,,,-99.99,perl,2013-04-05 19:23:00,
2013-04-05 15:28:00,41.7,-99.9,29.94,ENE,59,5.8,5.8,-999,0.00,,,-99.99,perl,2013-04-05 19:28:00,
2013-04-05 15:33:00,41.4,-99.9,29.94,NW,323,4.8,6.3,-999,0.00,,,-99.99,perl,2013-04-05 19:33:00,
2013-04-05 15:38:00,41.2,-99.9,29.94,NW,326,3.6,5.8,-999,0.00,,,-99.99,perl,2013-04-05 19:38:00,
2013-04-05 15:45:00,41.0,-99.9,29.94,NW,321,5.4,5.4,-999,0.00,,,-99.99,perl,2013-04-05 19:45:00,
2013-04-05 15:50:00,41.2,-99.9,29.94,NW,322,5.7,8.7,-999,0.00,,,-99.99,perl,2013-04-05 19:50:00,
2013-04-05 15:56:00,41.2,-99.9,29.94,NNW,332,5.4,5.4,-999,0.00,,,-99.99,perl,2013-04-05 19:56:00,
2013-04-05 16:01:00,40.8,-99.9,29.94,WNW,297,5.9,7.6,-999,0.00,,,-99.99,perl,2013-04-05 20:01:00,
2013-04-05 16:06:00,40.6,-99.9,29.94,WNW,287,5.4,6.3,-999,0.00,,,-99.99,perl,2013-04-05 20:06:00,
2013-04-05 16:12:00,40.6,-99.9,29.94,WNW,295,9.2,9.2,-999,0.00,,,-99.99,perl,2013-04-05 20:12:00,
2013-04-05 16:18:00,40.3,-99.9,29.97,NW,310,5.9,8.1,-999,0.00,,,-99.99,perl,2013-04-05 20:18:00,
2013-04-05 16:23:00,39.6,-99.9,29.97,NW,314,6.3,6.3,-999,0.00,,,-99.99,perl,2013-04-05 20:23:00,
2013-04-05 16:28:00,39.7,-99.9,29.97,WNW,297,5.4,8.7,-999,0.00,,,-99.99,perl,2013-04-05 20:28:00,
2013-04-05 16:33:00,39.7,-99.9,29.97,West,281,6.0,6.3,-999,0.00,,,-99.99,perl,2013-04-05 20:33:00,
2013-04-05 16:38:00,40.5,-99.9,29.97,West,269,4.0,4.0,-999,0.00,,,-99.99,perl,2013-04-05 20:38:00,
2013-04-05 16:43:00,40.6,-99.9,29.97,NW,319,8.1,8.1,-999,0.00,,,-99.99,perl,2013-04-05 20:43:00,
2013-04-05 16:49:00,40.3,-99.9,29.97,WSW,256,5.0,5.8,-999,0.00,,,-99.99,perl,2013-04-05 20:49:00,
2013-04-05 16:54:00,39.9,-99.9,29.97,NNW,327,7.2,7.2,-999,0.00,,,-99.99,perl,2013-04-05 20:54:00,
2013-04-05 17:00:00,39.4,-99.9,29.97,WNW,290,6.2,6.3,-999,0.00,,,-99.99,perl,2013-04-05 21:00:00,
2013-04-05 17:05:00,39.6,-99.9,29.97,NW,324,4.9,5.8,-999,0.00,,,-99.99,perl,2013-04-05 21:05:00,
2013-04-05 17:11:00,39.9,-99.9,29.97,NW,320,6.3,8.7,-999,0.00,,,-99.99,perl,2013-04-05 21:11:00,
2013-04-05 17:16:00,39.9,-99.9,29.97,NW,313,4.0,5.8,-999,0.00,,,-99.99,perl,2013-04-05 21:16:00,
2013-04-05 17:21:00,40.1,-99.9,29.97,NNW,346,5.3,7.2,-999,0.00,,,-99.99,perl,2013-04-05 21:21:00,
2013-04-05 17:26:00,40.1,-99.9,29.97,NNW,340,6.7,8.3,-999,0.00,,,-99.99,perl,2013-04-05 21:26:00,
2013-04-05 17:31:00,40.5,-99.9,29.97,WNW,302,5.8,6.3,-999,0.00,,,-99.99,perl,2013-04-05 21:31:00,
2013-04-05 17:36:00,39.9,-99.9,29.97,NNW,328,6.0,7.6,-999,0.00,,,-99.99,perl,2013-04-05 21:36:00,
2013-04-05 17:41:00,39.6,-99.9,29.97,NW,319,5.4,8.3,-999,0.00,,,-99.99,perl,2013-04-05 21:41:00,
2013-04-05 17:46:00,39.2,-99.9,29.97,NW,324,5.5,5.8,-999,0.00,,,-99.99,perl,2013-04-05 21:46:00,
2013-04-05 17:52:00,38.7,-99.9,29.97,WNW,303,6.4,7.2,-999,0.00,,,-99.99,perl,2013-04-05 21:52:00,
2013-04-05 17:57:00,38.7,-99.9,29.97,NW,319,3.1,3.6,-999,0.00,,,-99.99,perl,2013-04-05 21:57:00,
2013-04-05 18:03:00,38.8,-99.9,30.00,NW,307,4.5,8.1,-999,0.00,,,-99.99,perl,2013-04-05 22:03:00,
2013-04-05 18:08:00,39.0,-99.9,30.00,South,190,4.0,6.3,-999,0.00,,,-99.99,perl,2013-04-05 22:08:00,
2013-04-05 18:13:00,39.2,-99.9,30.00,SW,232,4.8,5.8,-999,0.00,,,-99.99,perl,2013-04-05 22:13:00,
2013-04-05 18:19:00,39.2,-99.9,30.00,WNW,292,6.3,6.3,-999,0.00,,,-99.99,perl,2013-04-05 22:19:00,
2013-04-05 18:25:00,39.2,-99.9,30.00,NNW,332,3.1,3.6,-999,0.00,,,-99.99,perl,2013-04-05 22:25:00,
2013-04-05 18:30:00,39.4,-99.9,30.00,NW,315,3.1,4.9,-999,0.00,,,-99.99,perl,2013-04-05 22:30:00,
2013-04-05 18:35:00,38.8,-99.9,30.00,WNW,292,4.8,8.3,-999,0.00,,,-99.99,perl,2013-04-05 22:35:00,
2013-04-05 18:40:00,38.8,-99.9,30.00,SW,222,4.9,5.4,-999,0.00,,,-99.99,perl,2013-04-05 22:40:00,
2013-04-05 18:45:00,38.5,-99.9,30.00,WSW,243,4.2,8.3,-999,0.00,,,-99.99,perl,2013-04-05 22:45:00,
2013-04-05 18:50:00,38.1,-99.9,30.00,WNW,302,4.0,4.9,-999,0.00,,,-99.99,perl,2013-04-05 22:50:00,
2013-04-05 18:55:00,38.1,-99.9,30.00,NW,313,3.4,5.4,-999,0.00,,,-99.99,perl,2013-04-05 22:55:00,
2013-04-05 19:01:00,37.9,-99.9,30.03,NW,319,4.0,5.4,-999,0.00,,,-99.99,perl,2013-04-05 23:01:00,
2013-04-05 19:06:00,37.6,-99.9,30.03,NW,312,5.1,5.1,-999,0.00,,,-99.99,perl,2013-04-05 23:06:00,
2013-04-05 19:12:00,37.4,-99.9,30.03,SSE,163,6.7,8.1,-999,0.00,,,-99.99,perl,2013-04-05 23:12:00,
2013-04-05 19:18:00,36.9,-99.9,30.03,WNW,299,5.4,8.7,-999,0.00,,,-99.99,perl,2013-04-05 23:18:00,
2013-04-05 19:23:00,36.7,-99.9,30.03,WNW,303,4.8,6.3,-999,0.00,,,-99.99,perl,2013-04-05 23:23:00,
2013-04-05 19:28:00,36.3,-99.9,30.03,NW,321,5.9,5.9,-999,0.00,,,-99.99,perl,2013-04-05 23:28:00,
2013-04-05 19:35:00,36.0,-99.9,30.03,NW,312,4.7,5.8,-999,0.00,,,-99.99,perl,2013-04-05 23:35:00,
2013-04-05 19:40:00,35.6,-99.9,30.03,WSW,244,5.8,6.3,-999,0.00,,,-99.99,perl,2013-04-05 23:40:00,
2013-04-05 19:46:00,35.2,-99.9,30.03,NW,316,5.4,7.6,-999,0.00,,,-99.99,perl,2013-04-05 23:46:00,
2013-04-05 19:51:00,35.1,-99.9,30.03,West,273,4.3,4.9,-999,0.00,,,-99.99,perl,2013-04-05 23:51:00,
2013-04-05 19:56:00,34.9,-99.9,30.03,NNW,327,3.0,5.8,-999,0.00,,,-99.99,perl,2013-04-05 23:56:00,
2013-04-05 20:01:00,34.5,-99.9,30.03,West,280,4.0,7.6,-999,0.00,,,-99.99,perl,2013-04-06 00:01:00,
2013-04-05 20:06:00,34.3,-99.9,30.03,NW,319,3.9,4.9,-999,0.00,,,-99.99,perl,2013-04-06 00:06:00,
2013-04-05 20:11:00,34.3,-99.9,30.03,WNW,300,3.1,4.0,-999,0.00,,,-99.99,perl,2013-04-06 00:11:00,
2013-04-05 20:16:00,34.0,-99.9,30.06,WNW,290,2.9,5.8,-999,0.00,,,-99.99,perl,2013-04-06 00:16:00,
2013-04-05 20:21:00,34.0,-99.9,30.06,NNW,329,4.5,4.5,-999,0.00,,,-99.99,perl,2013-04-06 00:21:00,
2013-04-05 20:26:00,33.8,-99.9,30.06,WNW,296,0.5,4.0,-999,0.00,,,-99.99,perl,2013-04-06 00:26:00,
2013-04-05 20:31:00,33.6,-99.9,30.06,WNW,297,3.4,3.6,-999,0.00,,,-99.99,perl,2013-04-06 00:31:00,
2013-04-05 20:36:00,33.4,-99.9,30.06,NW,322,3.1,4.0,-999,0.00,,,-99.99,perl,2013-04-06 00:36:00,
2013-04-05 20:41:00,33.4,-99.9,30.06,NW,318,3.2,4.0,-999,0.00,,,-99.99,perl,2013-04-06 00:41:00,
2013-04-05 20:46:00,33.3,-99.9,30.06,NW,324,2.7,4.0,-999,0.00,,,-99.99,perl,2013-04-06 00:46:00,
2013-04-05 20:51:00,33.1,-99.9,30.06,WNW,291,2.1,0.0,-999,0.00,,,-99.99,perl,2013-04-06 00:51:00,
2013-04-05 20:56:00,33.1,-99.9,30.06,NW,306,4.5,4.5,-999,0.00,,,-99.99,perl,2013-04-06 00:56:00,
2013-04-05 21:01:00,33.1,-99.9,30.06,WNW,292,2.7,3.1,-999,0.00,,,-99.99,perl,2013-04-06 01:01:00,
2013-04-05 21:06:00,32.9,-99.9,30.06,NNW,344,3.4,4.9,-999,0.00,,,-99.99,perl,2013-04-06 01:06:00,
2013-04-05 21:11:00,32.7,-99.9,30.06,WNW,299,3.1,4.0,-999,0.00,,,-99.99,perl,2013-04-06 01:11:00,
2013-04-05 21:16:00,32.5,-99.9,30.08,WNW,294,3.6,6.3,-999,0.00,,,-99.99,perl,2013-04-06 01:16:00,
2013-04-05 21:21:00,32.5,-99.9,30.08,WNW,294,3.1,4.0,-999,0.00,,,-99.99,perl,2013-04-06 01:21:00,
2013-04-05 21:26:00,32.5,-99.9,30.08,WNW,298,4.1,4.1,-999,0.00,,,-99.99,perl,2013-04-06 01:26:00,
2013-04-05 21:31:00,32.5,-99.9,30.08,NW,325,3.6,4.0,-999,0.00,,,-99.99,perl,2013-04-06 01:31:00,
2013-04-05 21:37:00,32.4,-99.9,30.08,NW,313,2.8,3.1,-999,0.00,,,-99.99,perl,2013-04-06 01:37:00,
2013-04-05 21:42:00,32.4,-99.9,30.08,NW,319,3.1,4.9,-999,0.00,,,-99.99,perl,2013-04-06 01:42:00,
2013-04-05 21:47:00,32.4,-99.9,30.08,NW,322,3.3,6.3,-999,0.00,,,-99.99,perl,2013-04-06 01:47:00,
2013-04-05 21:52:00,32.4,-99.9,30.08,NW,317,3.6,6.3,-999,0.00,,,-99.99,perl,2013-04-06 01:52:00,
2013-04-05 21:57:00,32.4,-99.9,30.08,NNW,335,3.1,0.0,-999,0.00,,,-99.99,perl,2013-04-06 01:57:00,
2013-04-05 22:03:00,32.2,-99.9,30.08,NNW,339,4.0,4.0,-999,0.00,,,-99.99,perl,2013-04-06 02:03:00,
2013-04-05 22:08:00,32.2,-99.9,30.08,NNW,340,2.8,4.0,-999,0.00,,,-99.99,perl,2013-04-06 02:08:00,
2013-04-05 22:14:00,32.2,-99.9,30.08,NW,314,3.1,4.9,-999,0.00,,,-99.99,perl,2013-04-06 02:14:00,
2013-04-05 22:19:00,32.0,-99.9,30.11,WNW,301,0.0,0.0,-999,0.00,,,-99.99,perl,2013-04-06 02:19:00,
2013-04-05 22:24:00,31.8,-99.9,30.11,NNW,328,0.0,2.7,-999,0.00,,,-99.99,perl,2013-04-06 02:24:00,
2013-04-05 22:29:00,31.6,-99.9,30.11,NW,319,2.8,4.0,-999,0.00,,,-99.99,perl,2013-04-06 02:29:00,
2013-04-05 22:35:00,31.5,-99.9,30.11,NW,306,3.1,3.1,-999,0.00,,,-99.99,perl,2013-04-06 02:35:00,
2013-04-05 22:40:00,31.5,-99.9,30.11,WNW,295,2.8,3.6,-999,0.00,,,-99.99,perl,2013-04-06 02:40:00,
2013-04-05 22:45:00,31.3,-99.9,30.11,NW,317,3.6,4.9,-999,0.00,,,-99.99,perl,2013-04-06 02:45:00,
2013-04-05 22:51:00,31.3,-99.9,30.11,NW,304,3.0,3.6,-999,0.00,,,-99.99,perl,2013-04-06 02:51:00,
2013-04-05 23:00:00,31.1,-99.9,30.11,North,353,1.8,0.0,-999,0.00,,,-99.99,perl,2013-04-06 03:00:00,
2013-04-05 23:07:00,30.9,-99.9,30.11,NW,308,0.8,3.6,-999,0.00,,,-99.99,perl,2013-04-06 03:07:00,
2013-04-05 23:12:00,30.7,-99.9,30.11,NW,326,0.0,0.0,-999,0.00,,,-99.99,perl,2013-04-06 03:12:00,
2013-04-05 23:17:00,30.7,-99.9,30.11,NW,304,0.0,0.0,-999,0.00,,,-99.99,perl,2013-04-06 03:17:00,
2013-04-05 23:22:00,30.7,-99.9,30.11,NW,304,0.0,0.0,-999,0.00,,,-99.99,perl,2013-04-06 03:22:00,
2013-04-05 23:28:00,30.6,-99.9,30.11,NNW,332,2.9,2.9,-999,0.00,,,-99.99,perl,2013-04-06 03:28:00,
2013-04-05 23:33:00,30.6,-99.9,30.11,NNW,328,0.0,0.0,-999,0.00,,,-99.99,perl,2013-04-06 03:33:00,
2013-04-05 23:38:00,30.6,-99.9,30.11,NW,310,0.0,4.0,-999,0.00,,,-99.99,perl,2013-04-06 03:38:00,
2013-04-05 23:43:00,30.6,-99.9,30.11,NNW,346,3.4,3.4,-999,0.00,,,-99.99,perl,2013-04-06 03:43:00,
2013-04-05 23:48:00,30.4,-99.9,30.11,NNW,338,2.7,0.0,-999,0.00,,,-99.99,perl,2013-04-06 03:48:00,
2013-04-05 23:53:00,30.4,-99.9,30.11,SE,128,0.0,0.0,-999,0.00,,,-99.99,perl,2013-04-06 03:53:00,
2013-04-05 23:58:00,30.2,-99.9,30.11,NW,324,0.0,0.0,-999,0.00,,,-99.99,perl,2013-04-06 03:58:00,